createdAt,value
2018-11-26T00:01:56.598Z,14.20
2018-11-26T00:04:25.133Z,14.17
2018-11-26T00:06:53.607Z,14.93
2018-11-26T00:09:22.042Z,12.63
2018-11-26T00:11:50.563Z,14.47
2018-11-26T00:14:19.184Z,14.13
2018-11-26T00:16:47.756Z,13.87
2018-11-26T00:19:16.309Z,14.77
2018-11-26T00:21:44.813Z,13.83
2018-11-26T00:24:13.326Z,13.40
2018-11-26T00:26:41.922Z,13.20
2018-11-26T00:29:10.453Z,13.33
2018-11-26T00:31:38.900Z,14.63
2018-11-26T00:34:07.481Z,15.70
2018-11-26T00:36:35.989Z,15.10
2018-11-26T00:39:06.317Z,14.50
2018-11-26T00:41:34.761Z,15.10
2018-11-26T00:44:03.313Z,15.57
2018-11-26T00:46:31.857Z,15.23
2018-11-26T00:49:00.308Z,15.27
2018-11-26T00:51:28.844Z,14.80
2018-11-26T00:53:57.272Z,14.87
2018-11-26T00:56:25.875Z,14.43
2018-11-26T00:58:54.391Z,15.13
2018-11-26T01:01:22.828Z,16.00
2018-11-26T01:03:51.623Z,15.70
2018-11-26T01:06:20.948Z,15.50
2018-11-26T01:08:48.586Z,15.93
2018-11-26T01:11:17.053Z,16.47
2018-11-26T01:13:45.565Z,15.23
2018-11-26T01:16:14.031Z,15.93
2018-11-26T01:18:42.517Z,15.97
2018-11-26T01:21:10.998Z,16.23
2018-11-26T01:23:39.511Z,16.00
2018-11-26T01:26:08.093Z,14.77
2018-11-26T01:28:36.532Z,15.67
2018-11-26T01:31:05.210Z,15.57
2018-11-26T01:33:33.673Z,17.10
2018-11-26T01:36:02.192Z,15.73
2018-11-26T01:38:30.653Z,15.17
2018-11-26T01:40:59.141Z,14.07
2018-11-26T01:43:27.625Z,15.73
2018-11-26T01:45:56.141Z,15.87
2018-11-26T01:48:24.560Z,16.23
2018-11-26T01:50:53.051Z,16.17
2018-11-26T01:53:21.542Z,15.70
2018-11-26T01:55:50.045Z,14.93
2018-11-26T01:58:18.510Z,16.63
2018-11-26T02:00:47.027Z,15.50
2018-11-26T02:03:15.513Z,15.93
2018-11-26T02:05:43.961Z,16.00
2018-11-26T02:08:12.478Z,14.87
2018-11-26T02:10:40.936Z,15.67
2018-11-26T02:13:09.398Z,14.87
2018-11-26T02:15:39.629Z,17.13
2018-11-26T02:18:08.877Z,15.23
2018-11-26T02:20:37.377Z,15.27
2018-11-26T02:23:06.233Z,15.33
2018-11-26T02:25:34.745Z,15.97
2018-11-26T02:29:06.566Z,15.37
2018-11-26T02:31:35.027Z,15.30
2018-11-26T02:34:03.595Z,15.13
2018-11-26T02:36:32.193Z,16.67
2018-11-26T02:39:00.709Z,15.40
2018-11-26T02:41:29.165Z,16.60
2018-11-26T02:43:57.631Z,16.27
2018-11-26T02:46:26.130Z,15.30
2018-11-26T02:48:54.604Z,16.57
2018-11-26T02:51:23.085Z,17.40
2018-11-26T02:53:51.640Z,16.43
2018-11-26T02:56:20.150Z,17.07
2018-11-26T02:58:48.614Z,16.53
2018-11-26T03:01:17.141Z,16.63
2018-11-26T03:03:45.585Z,16.90
2018-11-26T03:06:14.113Z,16.77
2018-11-26T03:08:42.553Z,15.57
2018-11-26T03:11:11.070Z,16.30
2018-11-26T03:13:39.501Z,16.53
2018-11-26T03:16:08.006Z,16.77
2018-11-26T03:18:36.496Z,16.37
2018-11-26T03:21:04.980Z,15.10
2018-11-26T03:23:33.450Z,16.30
2018-11-26T03:26:01.925Z,17.07
2018-11-26T03:28:30.418Z,16.07
2018-11-26T03:30:58.894Z,16.03
2018-11-26T03:33:27.395Z,17.07
2018-11-26T03:35:55.845Z,16.47
2018-11-26T03:38:48.765Z,17.93
2018-11-26T03:41:17.223Z,18.20
2018-11-26T03:43:45.713Z,17.87
2018-11-26T03:46:14.410Z,15.93
2018-11-26T03:48:42.873Z,18.00
2018-11-26T03:51:11.535Z,16.73
2018-11-26T03:53:40.005Z,17.50
2018-11-26T03:56:08.494Z,17.87
2018-11-26T03:58:36.974Z,16.63
2018-11-26T04:01:05.791Z,17.97
2018-11-26T04:03:34.241Z,16.87
2018-11-26T04:06:02.725Z,16.00
2018-11-26T04:08:31.215Z,18.10
2018-11-26T04:10:59.723Z,16.07
2018-11-26T04:13:28.176Z,16.50
2018-11-26T04:15:56.641Z,18.53
2018-11-26T04:18:25.133Z,16.23
2018-11-26T04:20:53.627Z,15.90
2018-11-26T04:23:22.131Z,16.07
2018-11-26T04:25:50.571Z,14.60
2018-11-26T04:28:19.094Z,15.77
2018-11-26T04:30:47.574Z,14.40
2018-11-26T04:33:16.044Z,15.10
2018-11-26T04:35:44.508Z,14.60
2018-11-26T04:38:12.985Z,16.53
2018-11-26T04:40:41.497Z,15.40
2018-11-26T04:43:09.955Z,16.20
2018-11-26T04:45:38.450Z,15.70
2018-11-26T04:48:06.935Z,14.57
2018-11-26T04:50:35.405Z,14.80
2018-11-26T04:53:03.911Z,14.83
2018-11-26T04:55:32.398Z,15.63
2018-11-26T04:58:01.002Z,15.00
2018-11-26T05:00:29.784Z,16.17
2018-11-26T05:02:58.209Z,15.20
2018-11-26T05:05:28.256Z,15.70
2018-11-26T05:07:56.337Z,15.13
2018-11-26T05:10:24.798Z,15.73
2018-11-26T05:12:53.268Z,17.00
2018-11-26T05:15:21.761Z,15.37
2018-11-26T05:17:50.271Z,17.27
2018-11-26T05:20:18.721Z,16.20
2018-11-26T05:22:47.218Z,16.03
2018-11-26T05:25:16.058Z,15.33
2018-11-26T05:27:44.991Z,16.63
2018-11-26T05:30:14.288Z,16.07
2018-11-26T05:32:43.173Z,16.23
2018-11-26T05:35:12.597Z,17.17
2018-11-26T05:37:41.066Z,16.23
2018-11-26T05:40:11.795Z,15.80
2018-11-26T05:42:40.514Z,16.87
2018-11-26T05:45:10.658Z,16.43
2018-11-26T05:47:39.140Z,15.80
2018-11-26T05:50:11.781Z,16.20
2018-11-26T05:52:40.876Z,16.63
2018-11-26T05:55:13.658Z,18.43
2018-11-26T05:57:42.161Z,16.03
2018-11-26T06:00:23.589Z,17.30
2018-11-26T06:02:52.124Z,17.50
2018-11-26T06:05:20.581Z,17.40
2018-11-26T06:07:49.053Z,16.93
2018-11-26T06:10:17.546Z,18.00
2018-11-26T06:12:46.137Z,17.30
2018-11-26T06:15:14.661Z,17.93
2018-11-26T06:17:43.111Z,17.70
2018-11-26T06:20:12.687Z,17.17
2018-11-26T06:22:42.819Z,17.77
2018-11-26T06:25:13.021Z,16.70
2018-11-26T06:27:41.521Z,17.77
2018-11-26T06:30:12.649Z,17.20
2018-11-26T06:32:42.274Z,15.60
2018-11-26T06:35:19.641Z,17.37
2018-11-26T06:37:48.330Z,18.20
2018-11-26T06:40:16.850Z,16.27
2018-11-26T06:42:45.337Z,18.53
2018-11-26T06:45:17.173Z,18.50
2018-11-26T06:47:45.652Z,18.60
2018-11-26T06:50:15.368Z,17.73
2018-11-26T06:52:44.120Z,19.73
2018-11-26T06:56:37.753Z,19.07
2018-11-26T06:59:06.220Z,18.30
2018-11-26T07:01:34.715Z,20.83
2018-11-26T07:04:03.182Z,19.07
2018-11-26T07:06:32.123Z,18.57
2018-11-26T07:09:00.545Z,18.70
2018-11-26T07:11:29.029Z,19.10
2018-11-26T07:13:57.514Z,19.57
2018-11-26T07:16:25.987Z,23.27
2018-11-26T07:18:54.497Z,20.23
2018-11-26T07:21:22.941Z,20.13
2018-11-26T07:23:51.434Z,18.87
2018-11-26T07:26:20.045Z,21.40
2018-11-26T07:28:48.477Z,20.47
2018-11-26T07:31:16.983Z,20.90
2018-11-26T07:33:45.472Z,19.40
2018-11-26T07:36:13.945Z,21.50
2018-11-26T07:38:42.439Z,19.30
2018-11-26T07:41:10.913Z,19.80
2018-11-26T07:43:39.371Z,19.23
2018-11-26T07:46:07.896Z,20.47
2018-11-26T07:48:36.349Z,21.70
2018-11-26T07:51:05.082Z,20.07
2018-11-26T07:53:33.537Z,20.13
2018-11-26T07:56:02.013Z,22.13
2018-11-26T07:58:30.494Z,22.50
2018-11-26T08:00:59.003Z,21.10
2018-11-26T08:03:27.448Z,20.07
2018-11-26T08:05:55.928Z,23.40
2018-11-26T08:08:24.425Z,22.53
2018-11-26T08:10:53.040Z,21.57
2018-11-26T08:13:21.469Z,22.50
2018-11-26T08:15:49.945Z,22.17
2018-11-26T08:18:18.449Z,25.10
2018-11-26T08:20:47.159Z,22.57
2018-11-26T08:23:15.661Z,22.73
2018-11-26T08:25:44.067Z,23.97
2018-11-26T08:28:12.614Z,23.03
2018-11-26T08:30:41.059Z,22.63
2018-11-26T08:33:09.572Z,21.97
2018-11-26T08:35:38.049Z,24.50
2018-11-26T08:38:07.498Z,23.27
2018-11-26T08:40:41.370Z,23.53
2018-11-26T08:43:15.333Z,24.10
2018-11-26T08:45:52.178Z,23.37
2018-11-26T08:48:25.920Z,24.03
2018-11-26T08:50:55.431Z,22.30
2018-11-26T08:53:24.218Z,24.10
2018-11-26T08:55:52.750Z,22.70
2018-11-26T08:58:21.180Z,23.00
2018-11-26T09:00:55.033Z,23.70
2018-11-26T09:03:23.548Z,22.60
2018-11-26T09:06:00.582Z,24.60
2018-11-26T09:08:30.105Z,23.73
2018-11-26T09:10:58.848Z,24.57
2018-11-26T09:13:27.330Z,23.40
2018-11-26T09:15:55.805Z,22.87
2018-11-26T09:18:24.285Z,22.07
2018-11-26T09:20:52.806Z,21.00
2018-11-26T09:23:21.283Z,22.80
2018-11-26T09:25:49.937Z,21.77
2018-11-26T09:28:18.422Z,21.53
2018-11-26T09:30:46.951Z,21.97
2018-11-26T09:33:15.447Z,21.20
2018-11-26T09:35:43.877Z,21.20
2018-11-26T09:38:13.132Z,22.23
2018-11-26T09:40:40.945Z,21.37
2018-11-26T09:43:09.442Z,20.40
2018-11-26T09:45:40.441Z,20.90
2018-11-26T09:48:06.448Z,19.17
2018-11-26T09:50:35.126Z,19.67
2018-11-26T09:53:03.566Z,19.47
2018-11-26T09:55:32.060Z,20.50
2018-11-26T09:58:00.550Z,18.90
2018-11-26T10:00:29.033Z,19.53
2018-11-26T10:02:57.586Z,20.70
2018-11-26T10:05:26.750Z,19.00
2018-11-26T10:07:55.187Z,20.30
2018-11-26T10:10:23.797Z,18.80
2018-11-26T10:12:52.261Z,17.80
2018-11-26T10:15:22.130Z,19.50
2018-11-26T10:17:50.886Z,18.43
2018-11-26T10:20:19.513Z,19.80
2018-11-26T10:22:48.706Z,19.80
2018-11-26T10:25:19.480Z,20.33
2018-11-26T10:27:48.014Z,19.50
2018-11-26T10:30:18.006Z,18.07
2018-11-26T10:32:47.387Z,18.80
2018-11-26T10:35:16.950Z,18.53
2018-11-26T10:37:45.652Z,19.40
2018-11-26T10:40:21.042Z,18.50
2018-11-26T10:42:49.612Z,18.80
2018-11-26T10:45:19.313Z,17.67
2018-11-26T10:47:47.903Z,19.10
2018-11-26T10:50:17.666Z,18.27
2018-11-26T10:52:55.128Z,18.97
2018-11-26T10:55:25.928Z,17.27
2018-11-26T10:57:54.399Z,19.87
2018-11-26T11:00:28.090Z,18.47
2018-11-26T11:02:57.295Z,18.80
2018-11-26T11:05:25.867Z,19.00
2018-11-26T11:07:54.344Z,18.53
2018-11-26T11:10:26.403Z,20.03
2018-11-26T11:12:54.894Z,18.70
2018-11-26T11:15:23.560Z,18.53
2018-11-26T11:17:52.117Z,17.87
2018-11-26T11:20:22.058Z,19.40
2018-11-26T11:22:50.760Z,20.50
2018-11-26T11:25:20.089Z,19.50
2018-11-26T11:27:48.972Z,18.40
2018-11-26T11:30:18.635Z,19.70
2018-11-26T11:32:47.238Z,21.33
2018-11-26T11:35:16.453Z,18.83
2018-11-26T11:37:46.350Z,19.30
2018-11-26T11:40:16.589Z,18.80
2018-11-26T11:42:45.159Z,22.30
2018-11-26T11:45:15.011Z,21.03
2018-11-26T11:47:43.715Z,20.03
2018-11-26T11:50:15.451Z,19.67
2018-11-26T11:52:44.007Z,33.53
2018-11-26T11:55:14.607Z,18.80
2018-11-26T11:57:43.083Z,17.57
2018-11-26T12:00:13.843Z,16.90
2018-11-26T12:02:43.094Z,18.47
2018-11-26T12:05:13.305Z,19.37
2018-11-26T12:07:41.705Z,19.63
2018-11-26T12:10:11.423Z,18.93
2018-11-26T12:12:40.019Z,18.80
2018-11-26T12:15:11.259Z,18.30
2018-11-26T12:17:40.011Z,20.90
2018-11-26T12:20:09.953Z,23.17
2018-11-26T12:22:38.536Z,20.27
2018-11-26T12:25:09.068Z,21.20
2018-11-26T12:27:37.591Z,20.80
2018-11-26T12:30:12.159Z,20.70
2018-11-26T12:32:40.632Z,21.43
2018-11-26T12:35:09.188Z,20.60
2018-11-26T12:37:37.703Z,20.33
2018-11-26T12:40:08.813Z,20.70
2018-11-26T12:42:37.339Z,21.07
2018-11-26T12:45:42.197Z,20.13
2018-11-26T12:48:10.763Z,20.17
2018-11-26T12:50:39.479Z,23.30
2018-11-26T12:53:07.999Z,33.93
2018-11-26T12:55:38.032Z,21.80
2018-11-26T12:58:07.705Z,20.10
2018-11-26T13:00:37.385Z,21.83
2018-11-26T13:03:08.627Z,21.97
2018-11-26T13:05:37.098Z,24.70
2018-11-26T13:08:05.833Z,24.20
2018-11-26T13:10:34.375Z,22.80
2018-11-26T13:13:02.914Z,24.23
2018-11-26T13:15:31.455Z,27.20
2018-11-26T13:18:00.091Z,24.53
2018-11-26T13:20:29.644Z,21.80
2018-11-26T13:22:58.556Z,22.30
2018-11-26T13:25:29.409Z,24.33
2018-11-26T13:27:59.490Z,22.50
2018-11-26T13:30:31.423Z,22.80
2018-11-26T13:33:01.330Z,22.23
2018-11-26T13:35:30.471Z,22.47
2018-11-26T13:38:00.366Z,22.70
2018-11-26T13:40:29.294Z,21.53
2018-11-26T13:42:58.123Z,23.67
2018-11-26T13:45:32.201Z,23.47
2018-11-26T13:48:00.903Z,21.47
2018-11-26T13:50:32.620Z,23.67
2018-11-26T13:53:01.633Z,21.10
2018-11-26T13:55:30.848Z,22.40
2018-11-26T13:57:59.861Z,21.27
2018-11-26T14:00:28.433Z,21.37
2018-11-26T14:02:57.275Z,23.07
2018-11-26T14:05:25.892Z,20.43
2018-11-26T14:07:54.506Z,21.57
2018-11-26T14:10:25.578Z,22.17
2018-11-26T14:13:00.810Z,22.37
2018-11-26T14:15:29.327Z,23.27
2018-11-26T14:17:57.929Z,26.37
2018-11-26T14:20:26.570Z,27.27
2018-11-26T14:22:55.150Z,29.15
2018-11-26T14:25:23.716Z,23.83
2018-11-26T14:27:52.228Z,21.83
2018-11-26T14:30:24.486Z,23.03
2018-11-26T14:32:53.642Z,22.40
2018-11-26T14:35:22.339Z,21.07
2018-11-26T14:37:53.109Z,20.70
2018-11-26T14:40:24.154Z,21.07
2018-11-26T14:42:52.675Z,20.57
2018-11-26T14:45:21.273Z,22.13
2018-11-26T14:47:50.389Z,23.20
2018-11-26T14:50:18.766Z,22.80
2018-11-26T14:52:48.739Z,22.13
2018-11-26T14:55:24.839Z,21.95
2018-11-26T14:57:53.550Z,21.77
2018-11-26T15:00:22.387Z,20.07
2018-11-26T15:02:51.124Z,24.52
2018-11-26T15:06:22.842Z,25.02
2018-11-26T15:08:51.630Z,21.53
2018-11-26T15:11:20.213Z,22.50
2018-11-26T15:13:48.834Z,24.87
2018-11-26T15:16:17.411Z,22.93
2018-11-26T15:18:46.092Z,21.03
2018-11-26T15:21:15.735Z,21.97
2018-11-26T15:23:44.361Z,23.35
2018-11-26T15:26:13.025Z,22.50
2018-11-26T15:28:41.546Z,21.97
2018-11-26T15:31:10.082Z,22.80
2018-11-26T15:33:38.594Z,23.80
2018-11-26T15:36:07.275Z,24.93
2018-11-26T15:38:35.866Z,23.57
2018-11-26T15:41:04.709Z,24.20
2018-11-26T15:43:33.218Z,23.47
2018-11-26T15:46:01.859Z,25.30
2018-11-26T15:48:30.423Z,25.10
2018-11-26T15:50:59.005Z,27.03
2018-11-26T15:53:27.550Z,24.63
2018-11-26T15:55:56.171Z,23.60
2018-11-26T15:58:24.747Z,22.10
2018-11-26T16:00:53.333Z,24.20
2018-11-26T16:03:21.935Z,23.70
2018-11-26T16:05:50.480Z,24.32
2018-11-26T16:08:18.969Z,23.42
2018-11-26T16:10:47.423Z,24.10
2018-11-26T16:13:16.508Z,25.37
2018-11-26T16:15:45.715Z,24.10
2018-11-26T16:18:19.946Z,26.00
2018-11-26T16:20:49.178Z,27.00
2018-11-26T16:23:17.700Z,23.37
2018-11-26T16:25:47.495Z,24.40
2018-11-26T16:28:20.745Z,24.20
2018-11-26T16:30:49.278Z,26.30
2018-11-26T16:33:17.838Z,23.50
2018-11-26T16:35:46.464Z,23.87
2018-11-26T16:38:14.956Z,24.67
2018-11-26T16:40:43.474Z,23.70
2018-11-26T16:43:12.026Z,25.23
2018-11-26T16:45:40.518Z,23.50
2018-11-26T16:48:08.983Z,24.73
2018-11-26T16:50:38.179Z,23.67
2018-11-26T16:53:07.575Z,23.70
2018-11-26T17:02:35.980Z,24.93
2018-11-26T17:05:04.998Z,24.90
2018-11-26T17:07:33.507Z,27.20
2018-11-26T17:10:01.995Z,25.87
2018-11-26T17:12:30.838Z,26.37
2018-11-26T17:14:59.614Z,28.03
2018-11-26T17:17:29.141Z,26.80
2018-11-26T17:19:57.659Z,27.23
2018-11-26T17:22:26.135Z,24.57
2018-11-26T17:24:54.629Z,27.67
2018-11-26T17:27:23.229Z,26.23
2018-11-26T17:29:51.769Z,28.30
2018-11-26T17:32:20.230Z,30.77
2018-11-26T17:34:48.908Z,25.70
2018-11-26T17:37:17.422Z,27.23
2018-11-26T17:39:45.905Z,26.40
2018-11-26T17:42:14.507Z,27.43
2018-11-26T17:44:43.031Z,28.53
2018-11-26T17:47:11.542Z,27.07
2018-11-26T17:49:40.109Z,24.70
2018-11-26T17:52:08.605Z,26.17
2018-11-26T17:54:37.135Z,27.33
2018-11-26T17:57:06.368Z,26.87
2018-11-26T17:59:34.871Z,28.60
2018-11-26T18:02:03.863Z,26.77
2018-11-26T18:04:32.574Z,27.73
2018-11-26T18:07:01.115Z,28.40
2018-11-26T18:09:29.738Z,27.67
2018-11-26T18:11:58.235Z,28.67
2018-11-26T18:14:26.671Z,31.03
2018-11-26T18:16:55.197Z,28.87
2018-11-26T18:19:23.679Z,29.57
2018-11-26T18:21:52.164Z,29.80
2018-11-26T18:24:20.759Z,29.37
2018-11-26T18:26:50.271Z,31.37
2018-11-26T18:29:18.814Z,29.97
2018-11-26T18:31:48.160Z,35.30
2018-11-26T18:34:16.845Z,30.17
2018-11-26T18:36:45.888Z,30.77
2018-11-26T18:39:14.404Z,30.97
2018-11-26T18:41:42.884Z,29.43
2018-11-26T18:44:11.406Z,29.80
2018-11-26T18:46:40.008Z,28.47
2018-11-26T18:49:09.582Z,29.37
2018-11-26T18:51:38.193Z,29.87
2018-11-26T18:54:06.770Z,27.80
2018-11-26T18:56:35.295Z,30.20
2018-11-26T18:59:03.955Z,32.90
2018-11-26T19:01:32.706Z,30.73
2018-11-26T19:04:01.283Z,29.00
2018-11-26T19:06:29.843Z,30.87
2018-11-26T19:08:58.379Z,32.80
2018-11-26T19:11:26.978Z,30.67
2018-11-26T19:13:59.536Z,29.90
2018-11-26T19:16:30.575Z,38.17
2018-11-26T19:19:00.142Z,34.60
2018-11-26T19:21:28.671Z,30.63
2018-11-26T19:23:57.225Z,34.47
2018-11-26T19:26:25.892Z,37.77
2018-11-26T19:28:54.509Z,33.50
2018-11-26T19:31:23.061Z,32.23
2018-11-26T19:33:52.014Z,31.57
2018-11-26T19:36:23.717Z,32.43
2018-11-26T19:38:52.287Z,32.67
2018-11-26T19:41:20.787Z,32.50
2018-11-26T19:43:49.331Z,33.37
2018-11-26T19:46:17.819Z,37.23
2018-11-26T19:48:46.287Z,34.40
2018-11-26T19:51:14.805Z,31.37
2018-11-26T19:53:43.246Z,33.80
2018-11-26T19:56:11.747Z,34.57
2018-11-26T19:58:40.245Z,32.20
2018-11-26T20:01:08.743Z,29.37
2018-11-26T20:03:40.859Z,31.93
2018-11-26T20:06:18.907Z,29.33
2018-11-26T20:08:49.042Z,29.30
2018-11-26T20:11:17.604Z,32.17
2018-11-26T20:13:46.097Z,31.00
2018-11-26T20:16:20.659Z,30.00
2018-11-26T20:18:49.162Z,29.80
2018-11-26T20:21:17.686Z,29.40
2018-11-26T20:23:46.116Z,29.40
2018-11-26T20:26:14.712Z,29.33
2018-11-26T20:28:43.371Z,28.90
2018-11-26T20:31:12.176Z,29.63
2018-11-26T20:33:40.698Z,28.37
2018-11-26T20:36:11.046Z,28.80
2018-11-26T20:38:39.718Z,28.87
2018-11-26T20:41:09.387Z,30.70
2018-11-26T20:43:38.140Z,29.97
2018-11-26T20:46:07.895Z,32.90
2018-11-26T20:48:36.499Z,30.03
2018-11-26T20:51:06.090Z,30.40
2018-11-26T20:53:34.653Z,29.20
2018-11-26T20:56:15.720Z,28.63
2018-11-26T20:58:45.393Z,31.77
2018-11-26T21:01:14.096Z,29.90
2018-11-26T21:03:43.158Z,29.80
2018-11-26T21:06:11.853Z,32.13
2018-11-26T21:08:40.299Z,29.40
2018-11-26T21:11:08.878Z,30.10
2018-11-26T21:13:38.735Z,28.20
2018-11-26T21:16:07.884Z,29.40
2018-11-26T21:18:37.475Z,29.30
2018-11-26T21:21:07.311Z,28.60
2018-11-26T21:23:37.843Z,28.73
2018-11-26T21:26:08.100Z,29.97
2018-11-26T21:28:36.616Z,28.50
2018-11-26T21:31:05.511Z,29.30
2018-11-26T21:33:34.668Z,28.67
2018-11-26T21:36:03.499Z,28.33
2018-11-26T21:38:34.192Z,28.40
2018-11-26T21:41:02.895Z,29.47
2018-11-26T21:43:31.417Z,30.27
2018-11-26T21:46:01.310Z,31.70
2018-11-26T21:48:30.112Z,31.13
2018-11-26T21:50:58.491Z,40.33
2018-11-26T21:53:27.107Z,33.33
2018-11-26T21:55:55.683Z,28.67
2018-11-26T21:58:24.202Z,28.63
2018-11-26T22:00:54.613Z,30.30
2018-11-26T22:03:23.190Z,30.40
2018-11-26T22:05:51.695Z,29.97
2018-11-26T22:08:20.305Z,29.57
2018-11-26T22:10:48.916Z,28.90
2018-11-26T22:13:20.958Z,29.03
2018-11-26T22:15:49.667Z,31.33
2018-11-26T22:18:18.240Z,30.40
2018-11-26T22:20:46.767Z,29.60
2018-11-26T22:23:15.434Z,29.90
2018-11-26T22:25:44.133Z,30.13
2018-11-26T22:28:12.853Z,29.67
2018-11-26T22:30:41.754Z,29.37
2018-11-26T22:33:10.475Z,28.90
2018-11-26T22:35:39.034Z,30.50
2018-11-26T22:38:07.998Z,28.17
2018-11-26T22:40:36.723Z,30.40
2018-11-26T22:43:05.774Z,30.77
2018-11-26T22:45:35.034Z,32.10
2018-11-26T22:48:12.764Z,29.43
2018-11-26T22:50:42.674Z,29.17
2018-11-26T22:53:11.345Z,29.77
2018-11-26T22:55:40.179Z,27.90
2018-11-26T22:58:11.174Z,30.33
2018-11-26T23:00:47.303Z,27.70
2018-11-26T23:03:18.475Z,27.97
2018-11-26T23:05:47.039Z,27.50
2018-11-26T23:08:15.569Z,29.50
2018-11-26T23:10:44.040Z,29.27
2018-11-26T23:13:12.534Z,28.03
2018-11-26T23:15:42.110Z,28.00
2018-11-26T23:18:10.801Z,27.27
2018-11-26T23:20:39.384Z,30.87
2018-11-26T23:23:07.898Z,28.97
2018-11-26T23:25:36.418Z,29.13
2018-11-26T23:28:05.248Z,30.13
2018-11-26T23:30:34.042Z,29.60
2018-11-26T23:33:03.885Z,27.90
2018-11-26T23:35:32.382Z,28.00
2018-11-26T23:38:00.882Z,29.43
2018-11-26T23:40:29.417Z,29.10
2018-11-26T23:42:57.977Z,27.40
2018-11-26T23:45:27.272Z,27.40
2018-11-26T23:47:55.880Z,27.50
2018-11-26T23:50:24.387Z,26.33
2018-11-26T23:52:52.872Z,28.00
2018-11-26T23:55:22.565Z,27.40
2018-11-26T23:57:51.043Z,29.23
